createdAt,value
2018-02-22T00:02:28.464Z,24.83
2018-02-22T00:04:58.475Z,29.55
2018-02-22T00:07:32.376Z,26.77
2018-02-22T00:10:00.464Z,34.05
2018-02-22T00:12:33.048Z,31.05
2018-02-22T00:15:02.024Z,32.38
2018-02-22T00:17:30.108Z,26.60
2018-02-22T00:20:08.599Z,26.90
2018-02-22T00:22:38.387Z,33.65
2018-02-22T00:25:08.423Z,34.20
2018-02-22T00:27:37.387Z,27.60
2018-02-22T00:30:05.467Z,29.63
2018-02-22T00:32:37.131Z,31.80
2018-02-22T00:35:05.951Z,28.83
2018-02-22T00:37:35.943Z,30.73
2018-02-22T00:40:06.708Z,24.60
2018-02-22T00:42:50.607Z,31.20
2018-02-22T00:45:19.611Z,35.40
2018-02-22T00:47:52.203Z,27.30
2018-02-22T00:50:21.271Z,31.25
2018-02-22T00:52:50.092Z,30.25
2018-02-22T00:55:20.023Z,37.80
2018-02-22T00:57:50.003Z,37.10
2018-02-22T01:00:23.815Z,29.90
2018-02-22T01:02:52.802Z,31.95
2018-02-22T01:05:21.787Z,29.12
2018-02-22T01:07:50.755Z,36.05
2018-02-22T01:10:21.923Z,31.37
2018-02-22T01:12:50.727Z,32.22
2018-02-22T01:15:20.463Z,40.10
2018-02-22T01:17:48.498Z,33.30
2018-02-22T01:20:16.579Z,34.03
2018-02-22T01:22:45.515Z,39.95
2018-02-22T01:25:19.318Z,34.85
2018-02-22T01:27:48.399Z,35.70
2018-02-22T01:30:19.954Z,53.20
2018-02-22T01:32:51.798Z,41.75
2018-02-22T01:35:19.825Z,36.70
2018-02-22T01:37:49.866Z,37.25
2018-02-22T01:40:19.890Z,33.90
2018-02-22T01:42:51.543Z,42.05
2018-02-22T01:45:19.606Z,36.97
2018-02-22T01:47:48.563Z,36.53
2018-02-22T01:50:16.627Z,35.10
2018-02-22T01:52:44.682Z,35.55
2018-02-22T01:55:20.462Z,41.33
2018-02-22T01:57:49.490Z,36.22
2018-02-22T02:00:21.434Z,40.05
2018-02-22T02:02:49.494Z,35.42
2018-02-22T02:05:17.935Z,37.50
2018-02-22T02:07:47.006Z,48.45
2018-02-22T02:10:16.039Z,38.92
2018-02-22T02:12:44.114Z,47.22
2018-02-22T02:15:12.174Z,39.42
2018-02-22T02:17:42.143Z,48.38
2018-02-22T02:20:10.231Z,43.67
2018-02-22T02:22:38.299Z,48.63
2018-02-22T02:25:06.383Z,41.00
2018-02-22T02:27:35.335Z,39.95
2018-02-22T02:30:03.402Z,41.50
2018-02-22T02:32:32.407Z,43.20
2018-02-22T02:35:01.459Z,43.63
2018-02-22T02:37:30.748Z,48.75
2018-02-22T02:40:10.338Z,38.75
2018-02-22T02:42:40.347Z,46.65
2018-02-22T02:45:08.411Z,46.08
2018-02-22T02:47:42.063Z,41.37
2018-02-22T02:50:13.218Z,44.97
2018-02-22T02:52:47.058Z,40.78
2018-02-22T02:55:20.071Z,44.67
2018-02-22T02:57:50.830Z,43.25
2018-02-22T03:00:18.928Z,39.28
2018-02-22T03:02:48.907Z,43.25
2018-02-22T03:05:16.950Z,44.22
2018-02-22T03:07:44.998Z,38.88
2018-02-22T03:10:13.846Z,36.97
2018-02-22T03:12:41.898Z,41.40
2018-02-22T03:15:10.990Z,41.17
2018-02-22T03:17:39.374Z,44.50
2018-02-22T03:20:14.219Z,42.65
2018-02-22T03:22:42.262Z,39.58
2018-02-22T03:25:17.747Z,41.92
2018-02-22T03:27:45.822Z,44.70
2018-02-22T03:30:13.931Z,41.03
2018-02-22T03:32:42.910Z,43.80
2018-02-22T03:35:13.778Z,38.70
2018-02-22T03:37:41.866Z,43.45
2018-02-22T03:40:09.922Z,45.65
2018-02-22T03:42:37.979Z,44.88
2018-02-22T03:45:09.642Z,39.42
2018-02-22T03:47:41.298Z,40.45
2018-02-22T03:50:09.406Z,53.40
2018-02-22T03:52:38.434Z,39.65
2018-02-22T03:55:06.506Z,44.28
2018-02-22T03:57:36.226Z,49.75
2018-02-22T04:00:07.591Z,39.83
2018-02-22T04:02:37.594Z,40.53
2018-02-22T04:05:08.806Z,45.25
2018-02-22T04:07:38.622Z,45.20
2018-02-22T04:10:08.629Z,42.97
2018-02-22T04:12:40.978Z,41.55
2018-02-22T04:15:09.014Z,47.10
2018-02-22T04:17:38.942Z,42.15
2018-02-22T04:20:10.121Z,40.55
2018-02-22T04:22:38.143Z,48.00
2018-02-22T04:25:07.182Z,48.28
2018-02-22T04:27:35.210Z,48.58
2018-02-22T04:30:03.250Z,43.17
2018-02-22T04:32:31.281Z,44.05
2018-02-22T04:35:00.222Z,45.58
2018-02-22T04:37:34.243Z,43.20
2018-02-22T04:40:14.990Z,44.05
2018-02-22T04:42:46.614Z,47.00
2018-02-22T04:45:16.638Z,38.95
2018-02-22T04:47:44.698Z,43.85
2018-02-22T04:50:14.718Z,36.45
2018-02-22T04:52:42.758Z,40.80
2018-02-22T04:55:10.822Z,42.00
2018-02-22T04:57:44.666Z,39.40
2018-02-22T05:00:18.874Z,44.92
2018-02-22T05:02:46.902Z,41.45
2018-02-22T05:05:14.946Z,42.47
2018-02-22T05:07:44.642Z,39.17
2018-02-22T05:10:13.446Z,46.72
2018-02-22T05:12:41.499Z,41.80
2018-02-22T05:15:11.291Z,39.28
2018-02-22T05:17:40.286Z,43.47
2018-02-22T05:20:11.947Z,37.42
2018-02-22T05:22:40.942Z,46.28
2018-02-22T05:25:08.962Z,42.20
2018-02-22T05:27:44.242Z,42.55
2018-02-22T05:30:13.238Z,42.17
2018-02-22T05:32:41.294Z,37.88
2018-02-22T05:35:09.327Z,36.80
2018-02-22T05:37:37.368Z,39.97
2018-02-22T05:40:07.170Z,35.63
2018-02-22T05:42:35.966Z,41.35
2018-02-22T05:45:04.774Z,40.70
2018-02-22T05:47:39.358Z,33.60
2018-02-22T05:50:08.371Z,39.88
2018-02-22T05:52:38.202Z,38.90
2018-02-22T05:55:06.238Z,38.83
2018-02-22T05:57:42.697Z,35.28
2018-02-22T06:00:18.218Z,45.90
2018-02-22T06:02:47.258Z,36.25
2018-02-22T06:05:16.062Z,38.70
2018-02-22T06:07:45.079Z,43.63
2018-02-22T06:10:13.106Z,37.38
2018-02-22T06:12:43.837Z,38.75
2018-02-22T06:15:16.809Z,36.17
2018-02-22T06:17:44.882Z,34.35
2018-02-22T06:20:13.862Z,37.78
2018-02-22T06:22:59.105Z,31.70
2018-02-22T06:25:27.146Z,33.90
2018-02-22T06:27:55.198Z,38.35
2018-02-22T06:30:24.014Z,27.70
2018-02-22T06:32:54.023Z,32.63
2018-02-22T06:35:30.014Z,45.35
2018-02-22T06:37:58.054Z,35.95
2018-02-22T06:40:29.831Z,33.45
2018-02-22T06:42:58.601Z,40.40
2018-02-22T06:45:27.569Z,40.30
2018-02-22T06:47:56.365Z,37.95
2018-02-22T06:50:24.409Z,35.92
2018-02-22T06:52:54.461Z,38.78
2018-02-22T06:55:22.496Z,34.35
2018-02-22T06:57:53.850Z,32.55
2018-02-22T07:00:22.646Z,35.75
2018-02-22T07:02:51.458Z,32.45
2018-02-22T07:05:19.514Z,32.47
2018-02-22T07:07:48.317Z,33.63
2018-02-22T07:10:18.302Z,32.67
2018-02-22T07:12:47.281Z,36.28
2018-02-22T07:15:16.269Z,33.92
2018-02-22T07:17:46.289Z,35.60
2018-02-22T07:20:23.625Z,35.72
2018-02-22T07:22:51.657Z,30.83
2018-02-22T07:25:20.497Z,48.00
2018-02-22T07:27:50.473Z,35.33
2018-02-22T07:30:18.513Z,34.25
2018-02-22T07:32:46.541Z,32.88
2018-02-22T07:35:15.590Z,36.83
2018-02-22T07:37:45.586Z,37.40
2018-02-22T07:40:15.377Z,37.10
2018-02-22T07:42:47.161Z,38.53
2018-02-22T07:45:15.197Z,33.25
2018-02-22T07:47:51.581Z,32.15
2018-02-22T07:50:19.621Z,30.92
2018-02-22T07:52:48.565Z,35.03
2018-02-22T07:55:18.493Z,35.28
2018-02-22T07:57:47.287Z,37.92
2018-02-22T08:00:17.961Z,30.45
2018-02-22T08:02:49.137Z,33.42
2018-02-22T08:05:18.056Z,29.98
2018-02-22T08:07:49.804Z,32.08
2018-02-22T08:10:19.585Z,32.90
2018-02-22T08:12:51.457Z,29.15
2018-02-22T08:15:19.528Z,32.72
2018-02-22T08:18:04.521Z,30.12
2018-02-22T08:20:50.236Z,32.80
2018-02-22T08:23:18.273Z,30.95
2018-02-22T08:25:54.077Z,33.30
2018-02-22T08:28:26.141Z,32.20
2018-02-22T08:30:55.169Z,27.70
2018-02-22T08:33:25.085Z,29.70
2018-02-22T08:36:10.255Z,29.02
2018-02-22T08:38:41.897Z,33.70
2018-02-22T08:41:10.821Z,35.03
2018-02-22T08:43:40.744Z,35.45
2018-02-22T08:46:16.493Z,32.53
2018-02-22T08:48:46.465Z,29.85
2018-02-22T08:51:15.386Z,30.98
2018-02-22T08:53:50.507Z,31.17
2018-02-22T08:56:18.529Z,26.58
2018-02-22T08:58:46.572Z,23.33
2018-02-22T09:01:17.561Z,27.30
2018-02-22T09:03:51.352Z,26.90
2018-02-22T09:06:19.391Z,26.17
2018-02-22T09:09:01.724Z,24.20
2018-02-22T09:11:33.976Z,28.12
2018-02-22T09:14:07.856Z,26.35
2018-02-22T09:16:52.508Z,27.52
2018-02-22T09:19:26.924Z,24.60
2018-02-22T09:21:55.725Z,23.55
2018-02-22T09:24:27.553Z,23.58
2018-02-22T09:26:59.312Z,28.23
2018-02-22T09:29:27.341Z,30.50
2018-02-22T09:32:12.065Z,29.15
2018-02-22T09:34:40.868Z,24.15
2018-02-22T09:37:09.813Z,24.45
2018-02-22T09:39:38.732Z,26.52
2018-02-22T09:42:07.537Z,23.15
2018-02-22T09:44:36.448Z,27.30
2018-02-22T09:47:04.473Z,24.80
2018-02-22T09:49:35.185Z,25.30
2018-02-22T09:52:03.213Z,24.17
2018-02-22T09:54:39.277Z,24.45
2018-02-22T09:57:11.416Z,26.50
2018-02-22T09:59:39.452Z,22.23
2018-02-22T10:02:07.476Z,21.60
2018-02-22T10:04:39.069Z,24.05
2018-02-22T10:07:09.083Z,25.15
2018-02-22T10:09:37.109Z,28.67
2018-02-22T10:12:05.136Z,22.83
2018-02-22T10:14:38.380Z,24.00
2018-02-22T10:17:12.128Z,29.65
2018-02-22T10:19:41.117Z,26.23
2018-02-22T10:22:09.145Z,21.87
2018-02-22T10:24:43.016Z,22.85
2018-02-22T10:27:17.518Z,21.05
2018-02-22T10:29:49.592Z,19.58
2018-02-22T10:32:17.620Z,25.35
2018-02-22T10:34:51.428Z,27.25
2018-02-22T10:37:24.456Z,25.23
2018-02-22T10:39:56.408Z,26.55
2018-02-22T10:42:30.249Z,23.23
2018-02-22T10:45:03.832Z,22.27
2018-02-22T10:47:32.620Z,20.88
2018-02-22T10:50:04.546Z,21.08
2018-02-22T10:52:32.555Z,27.00
2018-02-22T10:55:01.347Z,17.50
2018-02-22T10:57:31.032Z,17.23
2018-02-22T10:59:59.053Z,17.27
2018-02-22T11:02:32.832Z,21.23
2018-02-22T11:05:01.609Z,19.58
2018-02-22T11:07:35.259Z,21.52
2018-02-22T11:10:08.780Z,24.70
2018-02-22T11:12:36.836Z,19.62
2018-02-22T11:15:04.856Z,18.98
2018-02-22T11:17:34.779Z,19.15
2018-02-22T11:20:10.648Z,16.73
2018-02-22T11:22:52.312Z,17.35
2018-02-22T11:25:28.414Z,17.33
2018-02-22T11:27:59.582Z,18.42
2018-02-22T11:30:32.348Z,18.37
2018-02-22T11:33:13.599Z,20.58
2018-02-22T11:35:41.628Z,19.42
2018-02-22T11:38:17.428Z,16.62
2018-02-22T11:40:45.488Z,16.98
2018-02-22T11:43:18.445Z,16.05
2018-02-22T11:45:46.496Z,15.63
2018-02-22T11:48:21.600Z,17.80
2018-02-22T11:50:51.660Z,17.85
2018-02-22T11:53:24.436Z,17.73
2018-02-22T11:55:55.175Z,21.42
2018-02-22T11:58:25.892Z,22.17
2018-02-22T12:00:53.920Z,25.45
2018-02-22T12:03:28.452Z,19.33
2018-02-22T12:05:56.491Z,18.50
2018-02-22T12:08:29.347Z,18.90
2018-02-22T12:11:04.066Z,18.45
2018-02-22T12:13:32.112Z,18.27
2018-02-22T12:16:00.148Z,15.20
2018-02-22T12:18:29.100Z,20.83
2018-02-22T12:20:57.128Z,19.30
2018-02-22T12:23:25.172Z,17.45
2018-02-22T12:25:53.227Z,15.18
2018-02-22T12:28:23.911Z,17.70
2018-02-22T12:30:51.964Z,19.20
2018-02-22T12:33:20.900Z,21.30
2018-02-22T12:35:52.242Z,20.25
2018-02-22T12:38:28.680Z,14.95
2018-02-22T12:41:02.636Z,18.23
2018-02-22T12:43:32.379Z,18.90
2018-02-22T12:46:01.425Z,17.83
2018-02-22T12:48:31.460Z,21.80
2018-02-22T12:51:00.271Z,21.08
2018-02-22T12:53:28.299Z,17.55
2018-02-22T12:55:56.343Z,21.23
2018-02-22T12:58:25.363Z,18.37
2018-02-22T13:00:59.174Z,18.15
2018-02-22T13:03:27.220Z,17.40
2018-02-22T13:05:55.264Z,18.95
2018-02-22T13:08:23.307Z,18.65
2018-02-22T13:10:53.288Z,21.02
2018-02-22T13:13:22.303Z,19.08
2018-02-22T13:15:54.271Z,17.17
2018-02-22T13:18:28.164Z,15.57
2018-02-22T13:20:56.191Z,15.85
2018-02-22T13:23:24.235Z,18.70
2018-02-22T13:25:55.359Z,15.85
2018-02-22T13:28:25.152Z,24.50
2018-02-22T13:30:56.903Z,24.42
2018-02-22T13:33:37.720Z,13.90
2018-02-22T13:36:06.683Z,15.23
2018-02-22T13:38:47.663Z,16.98
2018-02-22T13:41:16.487Z,21.15
2018-02-22T13:43:44.531Z,17.42
2018-02-22T13:46:12.560Z,15.60
2018-02-22T13:48:52.479Z,17.75
2018-02-22T13:51:20.508Z,19.33
2018-02-22T13:53:50.142Z,22.98
2018-02-22T13:59:23.557Z,20.77
2018-02-22T14:02:04.604Z,13.98
2018-02-22T14:04:33.412Z,18.05
2018-02-22T14:07:04.579Z,12.35
2018-02-22T14:09:33.628Z,14.52
2018-02-22T14:12:01.651Z,14.98
2018-02-22T14:14:29.655Z,11.68
2018-02-22T14:16:57.703Z,15.90
2018-02-22T14:19:25.739Z,14.87
2018-02-22T14:21:54.675Z,15.02
2018-02-22T14:24:27.143Z,17.10
2018-02-22T14:26:58.603Z,13.77
2018-02-22T14:29:26.627Z,15.93
2018-02-22T14:31:54.651Z,11.40
2018-02-22T14:34:23.639Z,12.88
2018-02-22T14:36:51.671Z,14.77
2018-02-22T14:39:19.715Z,19.80
2018-02-22T14:41:48.671Z,14.95
2018-02-22T14:44:17.579Z,16.15
2018-02-22T14:46:56.649Z,11.90
2018-02-22T14:49:25.567Z,14.10
2018-02-22T14:51:59.311Z,15.40
2018-02-22T14:54:27.343Z,16.20
2018-02-22T14:56:57.995Z,14.82
2018-02-22T14:59:27.803Z,12.95
2018-02-22T15:01:56.719Z,12.13
2018-02-22T15:04:24.763Z,14.50
2018-02-22T15:06:58.455Z,13.93
2018-02-22T15:09:29.491Z,15.05
2018-02-22T15:12:02.997Z,13.13
2018-02-22T15:14:31.016Z,15.57
2018-02-22T15:17:03.434Z,16.67
2018-02-22T15:19:32.367Z,16.80
2018-02-22T15:22:00.395Z,14.68
2018-02-22T15:24:29.323Z,13.95
2018-02-22T15:27:04.071Z,12.10
2018-02-22T15:29:33.991Z,13.95
2018-02-22T15:32:08.607Z,13.18
2018-02-22T15:34:42.303Z,12.52
2018-02-22T15:37:11.243Z,15.18
2018-02-22T15:39:41.259Z,14.05
2018-02-22T15:42:16.351Z,12.45
2018-02-22T15:44:45.263Z,13.73
2018-02-22T15:47:17.043Z,14.63
2018-02-22T15:49:45.063Z,11.18
2018-02-22T15:52:16.674Z,15.25
2018-02-22T15:54:44.704Z,11.05
2018-02-22T15:57:17.179Z,12.57
2018-02-22T15:59:47.131Z,13.25
2018-02-22T16:02:16.035Z,17.17
2018-02-22T16:04:57.827Z,12.65
2018-02-22T16:07:33.147Z,11.50
2018-02-22T16:10:02.891Z,13.02
2018-02-22T16:12:34.703Z,12.25
2018-02-22T16:15:13.127Z,11.15
2018-02-22T16:17:51.815Z,11.27
2018-02-22T16:20:32.258Z,11.25
2018-02-22T16:23:01.167Z,12.98
2018-02-22T16:25:29.183Z,10.27
2018-02-22T16:27:59.179Z,12.35
2018-02-22T16:30:27.194Z,9.63
2018-02-22T16:32:57.131Z,14.68
2018-02-22T16:35:37.743Z,11.27
2018-02-22T16:38:05.762Z,12.50
2018-02-22T16:40:54.603Z,17.75
2018-02-22T16:43:27.146Z,11.68
2018-02-22T16:45:55.179Z,13.07
2018-02-22T16:48:25.123Z,14.70
2018-02-22T16:50:58.409Z,13.57
2018-02-22T16:53:26.427Z,11.45
2018-02-22T16:55:55.367Z,13.62
2018-02-22T16:58:23.390Z,15.30
2018-02-22T17:00:51.424Z,8.73
2018-02-22T17:03:20.334Z,12.77
2018-02-22T17:06:07.064Z,12.68
2018-02-22T17:08:35.079Z,15.05
2018-02-22T17:11:03.112Z,11.55
2018-02-22T17:13:34.747Z,10.05
2018-02-22T17:16:09.295Z,11.50
2018-02-22T17:18:40.479Z,12.20
2018-02-22T17:21:14.110Z,13.82
2018-02-22T17:23:45.927Z,11.12
2018-02-22T17:26:24.227Z,10.55
2018-02-22T17:29:05.606Z,13.13
2018-02-22T17:31:39.403Z,12.88
2018-02-22T17:34:15.271Z,8.93
2018-02-22T17:36:54.818Z,12.52
2018-02-22T17:39:28.618Z,10.90
2018-02-22T17:42:03.350Z,10.52
2018-02-22T17:44:31.371Z,15.95
2018-02-22T17:46:59.411Z,17.05
2018-02-22T17:49:28.215Z,17.90
2018-02-22T17:51:59.018Z,11.77
2018-02-22T17:54:27.051Z,11.27
2018-02-22T17:56:59.362Z,10.70
2018-02-22T17:59:32.046Z,10.25
2018-02-22T18:02:00.060Z,13.82
2018-02-22T18:04:34.315Z,11.27
2018-02-22T18:07:02.347Z,11.60
2018-02-22T18:09:32.291Z,9.80
2018-02-22T18:12:06.490Z,14.20
2018-02-22T18:14:42.334Z,14.55
2018-02-22T18:17:15.347Z,9.38
2018-02-22T18:19:48.035Z,9.10
2018-02-22T18:22:16.059Z,10.55
2018-02-22T18:24:56.243Z,10.48
2018-02-22T18:27:28.310Z,10.50
2018-02-22T18:29:57.306Z,11.73
2018-02-22T18:32:26.226Z,9.77
2018-02-22T18:34:56.017Z,7.90
2018-02-22T18:37:37.587Z,9.35
2018-02-22T18:40:12.244Z,9.88
2018-02-22T18:42:49.726Z,8.65
2018-02-22T18:45:17.759Z,10.43
2018-02-22T18:47:53.286Z,8.70
2018-02-22T18:50:24.275Z,10.30
2018-02-22T18:52:57.038Z,8.90
2018-02-22T18:55:27.068Z,9.13
2018-02-22T18:57:58.519Z,11.30
2018-02-22T19:00:26.566Z,10.82
2018-02-22T19:02:56.481Z,9.63
2018-02-22T19:05:36.504Z,10.25
2018-02-22T19:08:07.796Z,11.18
2018-02-22T19:10:46.387Z,11.95
2018-02-22T19:13:15.418Z,11.35
2018-02-22T19:15:44.327Z,10.70
2018-02-22T19:18:15.022Z,7.18
2018-02-22T19:20:43.926Z,9.13
2018-02-22T19:23:13.854Z,10.27
2018-02-22T19:25:45.394Z,11.20
2018-02-22T19:28:14.317Z,9.50
2018-02-22T19:30:42.453Z,12.07
2018-02-22T19:33:16.013Z,8.25
2018-02-22T19:35:44.947Z,8.63
2018-02-22T19:38:15.171Z,9.68
2018-02-22T19:40:58.978Z,13.65
2018-02-22T19:43:28.993Z,9.25
2018-02-22T19:45:59.734Z,10.65
2018-02-22T19:48:33.198Z,8.30
2018-02-22T19:51:04.758Z,8.60
2018-02-22T19:53:34.545Z,8.90
2018-02-22T19:56:03.770Z,11.20
2018-02-22T19:58:32.610Z,8.23
2018-02-22T20:01:07.340Z,7.65
2018-02-22T20:03:39.790Z,13.02
2018-02-22T20:06:10.470Z,8.43
2018-02-22T20:08:41.942Z,9.75
2018-02-22T20:11:15.746Z,10.98
2018-02-22T20:13:49.834Z,9.15
2018-02-22T20:16:26.954Z,10.63
2018-02-22T20:18:58.522Z,7.93
2018-02-22T20:24:02.665Z,12.35
2018-02-22T20:26:31.410Z,8.20
2018-02-22T20:37:00.914Z,10.15
2018-02-22T20:39:39.553Z,9.63
2018-02-22T20:42:11.862Z,12.23
2018-02-22T20:47:16.190Z,11.38
2018-02-22T20:49:48.442Z,8.70
2018-02-22T20:52:19.789Z,11.10
2018-02-22T20:54:54.402Z,10.73
2018-02-22T20:57:27.725Z,10.35
2018-02-22T20:59:56.989Z,13.50
2018-02-22T21:10:23.434Z,12.75
2018-02-22T21:12:51.494Z,13.95
2018-02-22T21:15:19.578Z,14.77
2018-02-22T21:17:50.722Z,18.80
2018-02-22T21:20:27.009Z,24.00
2018-02-22T21:22:56.029Z,15.10
2018-02-22T21:25:24.086Z,13.82
2018-02-22T21:27:55.729Z,11.52
2018-02-22T21:30:26.518Z,18.92
2018-02-22T21:32:56.594Z,12.63
2018-02-22T21:35:31.845Z,12.35
2018-02-22T21:38:02.670Z,17.33
2018-02-22T21:40:39.488Z,11.98
2018-02-22T21:43:10.589Z,13.18
2018-02-22T21:45:40.115Z,15.02
2018-02-22T21:48:08.714Z,12.00
2018-02-22T21:50:37.904Z,14.70
2018-02-22T21:53:10.854Z,14.35
2018-02-22T21:55:41.457Z,13.98
2018-02-22T21:58:12.534Z,13.30
2018-02-22T22:00:46.509Z,18.40
2018-02-22T22:03:21.753Z,16.02
2018-02-22T22:05:55.289Z,18.67
2018-02-22T22:08:34.697Z,16.35
2018-02-22T22:11:03.917Z,14.07
2018-02-22T22:13:37.289Z,18.37
2018-02-22T22:16:09.881Z,14.73
2018-02-22T22:18:41.415Z,19.87
2018-02-22T22:21:10.238Z,20.02
2018-02-22T22:23:39.253Z,16.58
2018-02-22T22:26:13.977Z,17.15
2018-02-22T22:28:49.753Z,17.23
2018-02-22T22:31:23.965Z,20.67
2018-02-22T22:33:56.765Z,17.87
2018-02-22T22:36:24.821Z,18.08
2018-02-22T22:38:53.841Z,17.08
2018-02-22T22:41:27.193Z,19.40
2018-02-22T22:43:58.360Z,15.13
2018-02-22T22:46:29.353Z,18.27
2018-02-22T22:48:59.065Z,18.70
2018-02-22T22:51:27.129Z,18.25
2018-02-22T22:53:57.117Z,13.62
2018-02-22T22:56:25.193Z,20.52
2018-02-22T22:58:55.593Z,21.10
2018-02-22T23:01:24.496Z,18.45
2018-02-22T23:03:56.341Z,23.92
2018-02-22T23:06:25.448Z,16.42
2018-02-22T23:42:48.522Z,19.35
2018-02-22T23:45:23.200Z,17.05
2018-02-22T23:47:52.768Z,16.52
2018-02-22T23:50:20.797Z,17.17
2018-02-22T23:52:48.865Z,15.00
2018-02-22T23:55:29.120Z,21.35
2018-02-22T23:58:04.901Z,18.65
